createdAt,value
2019-01-30T00:01:25.532Z,93389.81
2019-01-30T00:03:58.406Z,93398.08
2019-01-30T00:06:31.326Z,93400.31
2019-01-30T00:09:06.068Z,93392.37
2019-01-30T00:11:39.461Z,93387.14
2019-01-30T00:14:12.550Z,93403.02
2019-01-30T00:16:45.645Z,93406.07
2019-01-30T00:19:18.613Z,93396.55
2019-01-30T00:21:51.725Z,93416.52
2019-01-30T00:24:24.574Z,93411.41
2019-01-30T00:26:57.883Z,93391.05
2019-01-30T00:29:30.895Z,93375.68
2019-01-30T00:32:03.997Z,93381.77
2019-01-30T00:34:38.631Z,93375.13
2019-01-30T00:37:11.683Z,93375.19
2019-01-30T00:39:44.730Z,93383.03
2019-01-30T00:42:17.657Z,93372.39
2019-01-30T00:44:50.821Z,93371.33
2019-01-30T00:47:24.017Z,93373.37
2019-01-30T00:49:57.365Z,93377.20
2019-01-30T00:52:30.185Z,93374.99
2019-01-30T00:55:03.345Z,93366.20
2019-01-30T00:57:36.128Z,93371.89
2019-01-30T01:00:14.606Z,93376.36
2019-01-30T01:02:47.826Z,93374.53
2019-01-30T01:05:21.406Z,93378.34
2019-01-30T01:07:54.470Z,93365.06
2019-01-30T01:10:27.508Z,93353.29
2019-01-30T01:13:00.551Z,93349.46
2019-01-30T01:15:34.476Z,93344.81
2019-01-30T01:18:07.795Z,93340.58
2019-01-30T01:20:40.941Z,93341.52
2019-01-30T01:23:14.048Z,93341.83
2019-01-30T01:25:47.106Z,93354.58
2019-01-30T01:28:21.834Z,93351.39
2019-01-30T01:30:54.839Z,93341.28
2019-01-30T01:33:28.925Z,93328.42
2019-01-30T01:36:02.052Z,93321.63
2019-01-30T01:38:35.399Z,93314.78
2019-01-30T01:41:08.377Z,93311.53
2019-01-30T01:43:41.266Z,93311.08
2019-01-30T01:46:14.269Z,93307.30
2019-01-30T01:48:47.439Z,93305.23
2019-01-30T01:51:20.487Z,93305.05
2019-01-30T01:53:53.267Z,93310.89
2019-01-30T01:56:26.168Z,93303.52
2019-01-30T01:58:59.467Z,93287.00
2019-01-30T02:01:32.481Z,93284.48
2019-01-30T02:04:05.474Z,93285.66
2019-01-30T02:06:39.077Z,93296.09
2019-01-30T02:09:12.183Z,93294.17
2019-01-30T02:11:45.945Z,93287.38
2019-01-30T02:14:19.342Z,93276.27
2019-01-30T02:16:52.932Z,93277.80
2019-01-30T02:19:26.662Z,93275.17
2019-01-30T02:22:00.242Z,93273.83
2019-01-30T02:24:34.080Z,93264.09
2019-01-30T02:27:07.379Z,93260.55
2019-01-30T02:29:40.320Z,93269.66
2019-01-30T02:32:13.661Z,93268.91
2019-01-30T02:34:46.860Z,93268.41
2019-01-30T02:37:20.296Z,93264.92
2019-01-30T02:39:53.338Z,93272.01
2019-01-30T02:42:26.257Z,93270.77
2019-01-30T02:44:59.518Z,93263.00
2019-01-30T02:47:32.548Z,93255.94
2019-01-30T02:50:07.651Z,93257.72
2019-01-30T02:52:40.529Z,93253.31
2019-01-30T02:55:15.407Z,93251.86
2019-01-30T02:57:48.743Z,93248.30
2019-01-30T03:00:34.192Z,93247.42
2019-01-30T03:03:07.395Z,93237.02
2019-01-30T03:05:40.348Z,93248.13
2019-01-30T03:08:13.425Z,93242.85
2019-01-30T03:10:46.552Z,93241.34
2019-01-30T03:13:19.469Z,93248.84
2019-01-30T03:15:52.492Z,93252.41
2019-01-30T03:18:25.876Z,93266.84
2019-01-30T03:20:58.826Z,93279.27
2019-01-30T03:23:31.773Z,93288.13
2019-01-30T03:26:04.998Z,93292.05
2019-01-30T03:28:37.975Z,93293.54
2019-01-30T03:31:17.699Z,93301.72
2019-01-30T03:33:45.816Z,93306.12
2019-01-30T03:36:18.830Z,93296.77
2019-01-30T03:38:51.673Z,93292.96
2019-01-30T03:41:25.070Z,93290.80
2019-01-30T03:43:58.265Z,93288.22
2019-01-30T03:46:31.504Z,93288.31
2019-01-30T03:49:05.209Z,93285.39
2019-01-30T03:51:38.817Z,93284.59
2019-01-30T03:54:12.005Z,93276.38
2019-01-30T03:56:45.225Z,93272.05
2019-01-30T03:59:18.349Z,93272.94
2019-01-30T04:01:51.665Z,93273.05
2019-01-30T04:04:24.897Z,93267.57
2019-01-30T04:06:59.363Z,93263.63
2019-01-30T04:09:32.520Z,93252.94
2019-01-30T04:12:05.901Z,93253.38
2019-01-30T04:14:39.085Z,93257.39
2019-01-30T04:17:12.050Z,93253.31
2019-01-30T04:19:44.930Z,93246.66
2019-01-30T04:22:18.066Z,93238.09
2019-01-30T04:24:50.979Z,93243.55
2019-01-30T04:27:24.657Z,93243.33
2019-01-30T04:29:58.069Z,93250.84
2019-01-30T04:32:31.553Z,93249.92
2019-01-30T04:35:04.816Z,93248.39
2019-01-30T04:37:38.276Z,93258.55
2019-01-30T04:40:15.728Z,93264.17
2019-01-30T04:42:49.486Z,93269.58
2019-01-30T04:45:25.109Z,93263.97
2019-01-30T04:47:58.201Z,93258.03
2019-01-30T04:50:31.648Z,93261.02
2019-01-30T04:53:04.951Z,93246.66
2019-01-30T04:55:37.894Z,93251.81
2019-01-30T04:58:11.251Z,93255.25
2019-01-30T05:00:44.404Z,93241.56
2019-01-30T05:03:18.123Z,93265.34
2019-01-30T05:05:51.500Z,93236.59
2019-01-30T05:08:25.196Z,93229.58
2019-01-30T05:10:58.589Z,93264.13
2019-01-30T05:13:31.657Z,93276.70
2019-01-30T05:16:05.256Z,93267.11
2019-01-30T05:18:38.168Z,93271.66
2019-01-30T05:21:11.479Z,93277.80
2019-01-30T05:23:44.756Z,93264.41
2019-01-30T05:26:18.153Z,93268.98
2019-01-30T05:28:52.056Z,93273.83
2019-01-30T05:31:25.395Z,93263.91
2019-01-30T05:33:58.539Z,93284.95
2019-01-30T05:36:31.652Z,93282.34
2019-01-30T05:39:06.424Z,93282.31
2019-01-30T05:41:40.189Z,93288.13
2019-01-30T05:44:13.249Z,93284.20
2019-01-30T05:46:46.347Z,93277.12
2019-01-30T05:49:19.106Z,93276.08
2019-01-30T05:51:52.658Z,93271.16
2019-01-30T05:54:25.649Z,93265.33
2019-01-30T05:56:58.766Z,93269.83
2019-01-30T05:59:31.999Z,93269.02
2019-01-30T06:02:11.777Z,93264.32
2019-01-30T06:04:39.856Z,93267.10
2019-01-30T06:07:13.045Z,93263.16
2019-01-30T06:09:46.439Z,93259.53
2019-01-30T06:12:19.097Z,93258.71
2019-01-30T06:14:52.448Z,93260.08
2019-01-30T06:17:25.514Z,93259.41
2019-01-30T06:19:58.652Z,93264.22
2019-01-30T06:22:31.649Z,93260.22
2019-01-30T06:25:07.479Z,93260.75
2019-01-30T06:27:40.836Z,93253.77
2019-01-30T06:30:16.616Z,93257.13
2019-01-30T06:32:49.745Z,93266.80
2019-01-30T06:35:23.308Z,93272.74
2019-01-30T06:37:56.486Z,93275.17
2019-01-30T06:40:33.467Z,93276.17
2019-01-30T06:43:06.585Z,93270.82
2019-01-30T06:45:39.611Z,93268.84
2019-01-30T06:48:12.581Z,93266.27
2019-01-30T06:50:45.776Z,93267.80
2019-01-30T06:53:18.896Z,93265.67
2019-01-30T06:55:52.114Z,93263.24
2019-01-30T06:58:25.109Z,93261.27
2019-01-30T07:00:58.434Z,93258.02
2019-01-30T07:03:31.823Z,93250.72
2019-01-30T07:06:07.629Z,93251.83
2019-01-30T07:08:41.520Z,93255.84
2019-01-30T07:11:14.902Z,93265.12
2019-01-30T07:13:47.910Z,93267.11
2019-01-30T07:16:21.034Z,93263.25
2019-01-30T07:18:54.640Z,93266.52
2019-01-30T07:21:27.784Z,93273.59
2019-01-30T07:24:01.033Z,93269.52
2019-01-30T07:26:33.882Z,93265.02
2019-01-30T07:29:08.312Z,93257.84
2019-01-30T07:31:41.811Z,93266.91
2019-01-30T07:34:14.807Z,93265.51
2019-01-30T07:36:47.990Z,93266.51
2019-01-30T07:39:21.175Z,93272.04
2019-01-30T07:41:54.274Z,93267.05
2019-01-30T07:44:27.310Z,93259.52
2019-01-30T07:47:00.645Z,93264.53
2019-01-30T07:49:33.888Z,93258.92
2019-01-30T07:52:07.168Z,93259.89
2019-01-30T07:54:40.727Z,93261.95
2019-01-30T07:57:14.436Z,93262.50
2019-01-30T07:59:47.845Z,93261.47
2019-01-30T08:02:22.037Z,93253.79
2019-01-30T08:04:55.575Z,93257.25
2019-01-30T08:07:30.866Z,93254.42
2019-01-30T08:10:05.881Z,93250.72
2019-01-30T08:12:39.011Z,93260.51
2019-01-30T08:15:16.488Z,93262.42
2019-01-30T08:17:49.868Z,93265.70
2019-01-30T08:20:24.901Z,93267.89
2019-01-30T08:22:58.057Z,93275.87
2019-01-30T08:25:31.555Z,93276.92
2019-01-30T08:28:05.256Z,93273.97
2019-01-30T08:30:38.768Z,93274.94
2019-01-30T08:33:13.018Z,93274.88
2019-01-30T08:35:46.137Z,93274.03
2019-01-30T08:38:19.238Z,93279.92
2019-01-30T08:40:52.407Z,93283.72
2019-01-30T08:43:25.650Z,93289.29
2019-01-30T08:45:58.688Z,93287.28
2019-01-30T08:48:32.126Z,93286.17
2019-01-30T08:51:05.680Z,93282.77
2019-01-30T08:53:40.428Z,93278.83
2019-01-30T08:56:13.606Z,93279.69
2019-01-30T08:58:46.852Z,93283.19
2019-01-30T09:01:20.295Z,93283.50
2019-01-30T09:03:53.545Z,93291.41
2019-01-30T09:06:27.031Z,93286.19
2019-01-30T09:08:59.983Z,93284.36
2019-01-30T09:11:33.339Z,93288.27
2019-01-30T09:14:06.923Z,93287.51
2019-01-30T09:16:40.101Z,93295.24
2019-01-30T09:19:13.602Z,93293.45
2019-01-30T09:21:47.222Z,93290.52
2019-01-30T09:24:20.454Z,93284.13
2019-01-30T09:26:53.493Z,93279.64
2019-01-30T09:29:26.748Z,93278.63
2019-01-30T09:32:00.314Z,93280.83
2019-01-30T09:34:33.510Z,93270.67
2019-01-30T09:37:06.762Z,93268.45
2019-01-30T09:39:40.007Z,93262.84
2019-01-30T09:42:13.272Z,93256.39
2019-01-30T09:44:47.440Z,93248.22
2019-01-30T09:47:20.405Z,93241.94
2019-01-30T09:49:53.349Z,93233.61
2019-01-30T09:52:27.329Z,93234.02
2019-01-30T09:55:00.356Z,93231.41
2019-01-30T09:57:33.172Z,93232.79
2019-01-30T10:00:07.767Z,93231.58
2019-01-30T10:02:41.027Z,93232.11
2019-01-30T10:05:14.858Z,93232.22
2019-01-30T10:07:48.033Z,93231.22
2019-01-30T10:10:24.963Z,93227.80
2019-01-30T10:12:58.593Z,93226.80
2019-01-30T10:15:43.917Z,93226.06
2019-01-30T10:18:17.986Z,93222.66
2019-01-30T10:20:51.530Z,93215.55
2019-01-30T10:23:24.403Z,93216.02
2019-01-30T10:25:57.787Z,93215.42
2019-01-30T10:28:30.959Z,93214.09
2019-01-30T10:31:04.572Z,93207.95
2019-01-30T10:33:46.363Z,93201.67
2019-01-30T10:36:12.665Z,93198.34
2019-01-30T10:38:45.928Z,93193.03
2019-01-30T10:41:19.132Z,93191.97
2019-01-30T10:43:52.603Z,93190.02
2019-01-30T10:46:26.261Z,93183.69
2019-01-30T10:48:59.749Z,93186.22
2019-01-30T10:51:33.351Z,93187.61
2019-01-30T10:54:06.666Z,93183.33
2019-01-30T10:56:40.476Z,93178.99
2019-01-30T10:59:14.082Z,93185.50
2019-01-30T11:01:48.803Z,93178.95
2019-01-30T11:04:22.389Z,93179.42
2019-01-30T11:06:56.493Z,93185.27
2019-01-30T11:09:29.986Z,93176.52
2019-01-30T11:12:03.515Z,93172.42
2019-01-30T11:14:36.754Z,93168.50
2019-01-30T11:17:09.981Z,93171.98
2019-01-30T11:19:45.425Z,93164.36
2019-01-30T11:22:19.764Z,93163.34
2019-01-30T11:24:55.681Z,93169.30
2019-01-30T11:27:28.329Z,93168.78
2019-01-30T11:30:01.586Z,93172.40
2019-01-30T11:32:35.080Z,93179.52
2019-01-30T11:35:09.168Z,93182.72
2019-01-30T11:37:42.654Z,93182.03
2019-01-30T11:40:17.313Z,93178.45
2019-01-30T11:42:50.779Z,93178.67
2019-01-30T11:45:30.498Z,93170.66
2019-01-30T11:48:04.233Z,93178.16
2019-01-30T11:50:37.995Z,93172.72
2019-01-30T11:53:11.861Z,93171.31
2019-01-30T11:55:45.658Z,93166.64
2019-01-30T11:58:19.246Z,93167.88
2019-01-30T12:01:03.255Z,93162.97
2019-01-30T12:03:35.542Z,93162.25
2019-01-30T12:06:09.054Z,93164.73
2019-01-30T12:08:50.173Z,93162.63
2019-01-30T12:11:42.063Z,93165.47
2019-01-30T12:14:15.907Z,93156.08
2019-01-30T12:16:49.127Z,93157.60
2019-01-30T12:19:23.386Z,93158.66
2019-01-30T12:21:57.132Z,93156.36
2019-01-30T12:24:31.403Z,93149.27
2019-01-30T12:27:05.224Z,93143.47
2019-01-30T12:29:38.601Z,93136.45
2019-01-30T12:32:12.435Z,93132.17
2019-01-30T12:34:45.801Z,93127.20
2019-01-30T12:37:19.122Z,93120.05
2019-01-30T12:39:58.442Z,93130.03
2019-01-30T12:42:31.575Z,93130.52
2019-01-30T12:45:07.798Z,93141.45
2019-01-30T12:47:44.752Z,93141.91
2019-01-30T12:50:20.025Z,93150.53
2019-01-30T12:52:56.304Z,93150.89
2019-01-30T12:55:30.179Z,93153.05
2019-01-30T12:58:03.850Z,93155.69
2019-01-30T13:00:40.910Z,93148.22
2019-01-30T13:03:14.463Z,93146.16
2019-01-30T13:05:47.913Z,93142.10
2019-01-30T13:11:19.336Z,93140.23
2019-01-30T13:13:57.646Z,93139.11
2019-01-30T13:16:31.053Z,93132.97
2019-01-30T13:19:06.071Z,93136.01
2019-01-30T13:21:39.457Z,93143.39
2019-01-30T13:24:12.907Z,93139.38
2019-01-30T13:26:46.589Z,93137.64
2019-01-30T13:29:20.104Z,93138.08
2019-01-30T13:31:53.914Z,93137.11
2019-01-30T13:34:27.130Z,93134.36
2019-01-30T13:37:04.497Z,93135.75
2019-01-30T13:39:38.072Z,93136.03
2019-01-30T13:42:12.145Z,93136.05
2019-01-30T13:44:45.292Z,93135.28
2019-01-30T13:47:18.816Z,93130.58
2019-01-30T13:49:55.475Z,93133.07
2019-01-30T13:52:28.859Z,93130.21
2019-01-30T13:55:02.434Z,93136.37
2019-01-30T13:57:35.911Z,93136.23
2019-01-30T14:00:24.022Z,93141.02
2019-01-30T14:02:57.729Z,93139.66
2019-01-30T14:05:31.646Z,93140.25
2019-01-30T14:08:05.577Z,93145.58
2019-01-30T14:10:42.012Z,93143.43
2019-01-30T14:13:15.314Z,93145.66
2019-01-30T14:15:49.316Z,93144.26
2019-01-30T14:18:22.572Z,93144.72
2019-01-30T14:20:56.626Z,93138.58
2019-01-30T14:23:30.543Z,93140.83
2019-01-30T14:26:07.119Z,93139.64
2019-01-30T14:28:42.083Z,93135.31
2019-01-30T14:31:15.547Z,93140.86
2019-01-30T14:33:49.046Z,93143.37
2019-01-30T14:36:22.638Z,93145.02
2019-01-30T14:38:55.767Z,93137.05
2019-01-30T14:41:28.973Z,93137.58
2019-01-30T14:44:02.214Z,93135.73
2019-01-30T14:46:35.703Z,93139.01
2019-01-30T14:49:08.917Z,93137.85
2019-01-30T14:51:42.424Z,93138.02
2019-01-30T14:54:16.401Z,93136.36
2019-01-30T14:56:49.737Z,93134.81
2019-01-30T14:59:22.900Z,93136.09
2019-01-30T15:01:56.138Z,93142.91
2019-01-30T15:04:29.605Z,93137.99
2019-01-30T15:07:02.938Z,93139.47
2019-01-30T15:09:35.988Z,93144.11
2019-01-30T15:12:09.683Z,93142.12
2019-01-30T15:14:43.145Z,93150.17
2019-01-30T15:17:17.424Z,93145.30
2019-01-30T15:19:50.889Z,93153.54
2019-01-30T15:22:23.969Z,93152.66
2019-01-30T15:24:57.439Z,93153.31
2019-01-30T15:27:31.335Z,93159.23
2019-01-30T15:30:05.458Z,93164.87
2019-01-30T15:32:39.590Z,93171.84
2019-01-30T15:35:13.465Z,93172.74
2019-01-30T15:37:47.393Z,93173.57
2019-01-30T15:40:26.831Z,93172.64
2019-01-30T15:43:00.324Z,93180.97
2019-01-30T15:45:35.936Z,93181.52
2019-01-30T15:48:10.041Z,93186.69
2019-01-30T15:50:44.976Z,93186.45
2019-01-30T15:53:21.866Z,93184.19
2019-01-30T15:55:55.365Z,93182.17
2019-01-30T15:58:28.852Z,93191.19
2019-01-30T16:01:11.172Z,93191.69
2019-01-30T16:03:44.519Z,93189.58
2019-01-30T16:06:18.570Z,93194.48
2019-01-30T16:08:51.991Z,93196.52
2019-01-30T16:11:25.396Z,93191.72
2019-01-30T16:13:59.079Z,93196.92
2019-01-30T16:16:32.300Z,93196.91
2019-01-30T16:19:05.909Z,93197.16
2019-01-30T16:21:39.164Z,93191.53
2019-01-30T16:24:12.931Z,93205.95
2019-01-30T16:26:46.479Z,93204.09
2019-01-30T16:29:19.762Z,93211.41
2019-01-30T16:31:54.076Z,93216.61
2019-01-30T16:34:27.823Z,93215.26
2019-01-30T16:37:01.365Z,93217.12
2019-01-30T16:39:34.550Z,93226.57
2019-01-30T16:42:08.646Z,93226.66
2019-01-30T16:44:42.164Z,93230.26
2019-01-30T16:47:15.814Z,93238.31
2019-01-30T16:49:49.474Z,93235.11
2019-01-30T16:52:23.275Z,93234.53
2019-01-30T16:54:58.309Z,93236.81
2019-01-30T16:57:31.747Z,93236.39
2019-01-30T17:00:05.253Z,93235.02
2019-01-30T17:02:38.243Z,93242.25
2019-01-30T17:05:14.165Z,93245.42
2019-01-30T17:07:47.638Z,93256.51
2019-01-30T17:10:21.356Z,93255.02
2019-01-30T17:12:56.053Z,93256.23
2019-01-30T17:15:33.246Z,93260.84
2019-01-30T17:18:07.700Z,93259.45
2019-01-30T17:20:41.976Z,93256.25
2019-01-30T17:23:15.206Z,93262.00
2019-01-30T17:25:48.647Z,93258.47
2019-01-30T17:28:25.314Z,93263.53
2019-01-30T17:31:29.865Z,93263.39
2019-01-30T17:34:03.489Z,93256.28
2019-01-30T17:36:36.572Z,93262.45
2019-01-30T17:39:12.478Z,93266.94
2019-01-30T17:41:45.997Z,93265.92
2019-01-30T17:44:22.690Z,93267.44
2019-01-30T17:47:14.602Z,93271.66
2019-01-30T17:49:48.379Z,93270.52
2019-01-30T17:52:21.405Z,93273.05
2019-01-30T17:54:54.685Z,93275.12
2019-01-30T17:57:31.272Z,93274.23
2019-01-30T18:00:07.688Z,93282.55
2019-01-30T18:02:41.492Z,93284.55
2019-01-30T18:05:14.918Z,93289.78
2019-01-30T18:07:48.449Z,93281.82
2019-01-30T18:10:23.525Z,93291.41
2019-01-30T18:12:58.074Z,93293.49
2019-01-30T18:15:32.700Z,93295.88
2019-01-30T18:18:06.104Z,93292.60
2019-01-30T18:20:39.215Z,93299.55
2019-01-30T18:23:12.178Z,93308.04
2019-01-30T18:25:45.719Z,93308.92
2019-01-30T18:28:18.884Z,93309.25
2019-01-30T18:30:52.455Z,93309.68
2019-01-30T18:33:25.974Z,93308.05
2019-01-30T18:36:00.434Z,93307.19
2019-01-30T18:38:35.862Z,93309.09
2019-01-30T18:41:08.790Z,93311.64
2019-01-30T18:43:42.133Z,93311.02
2019-01-30T18:46:15.532Z,93315.17
2019-01-30T18:48:48.630Z,93315.41
2019-01-30T18:51:21.851Z,93314.86
2019-01-30T18:53:54.919Z,93314.46
2019-01-30T18:56:27.961Z,93315.02
2019-01-30T18:59:00.992Z,93319.38
2019-01-30T19:01:33.860Z,93321.84
2019-01-30T19:04:07.404Z,93321.59
2019-01-30T19:06:51.675Z,93324.36
2019-01-30T19:09:15.926Z,93331.13
2019-01-30T19:11:49.288Z,93327.53
2019-01-30T19:14:22.800Z,93332.34
2019-01-30T19:16:56.104Z,93334.50
2019-01-30T19:19:29.285Z,93340.86
2019-01-30T19:22:01.907Z,93341.25
2019-01-30T19:24:35.806Z,93337.68
2019-01-30T19:27:10.860Z,93338.85
2019-01-30T19:29:43.986Z,93339.40
2019-01-30T19:32:17.377Z,93334.77
2019-01-30T19:34:50.159Z,93341.74
2019-01-30T19:37:23.329Z,93334.77
2019-01-30T19:39:56.298Z,93339.18
2019-01-30T19:42:29.147Z,93342.08
2019-01-30T19:45:02.206Z,93345.97
2019-01-30T19:47:35.148Z,93348.08
2019-01-30T19:50:12.156Z,93344.61
2019-01-30T19:52:45.365Z,93348.34
2019-01-30T19:55:18.616Z,93354.83
2019-01-30T19:57:51.841Z,93351.17
2019-01-30T20:00:46.140Z,93357.67
2019-01-30T20:03:25.854Z,93358.44
2019-01-30T20:05:59.131Z,93357.61
2019-01-30T20:08:33.492Z,93357.14
2019-01-30T20:11:06.672Z,93354.45
2019-01-30T20:13:44.120Z,93361.34
2019-01-30T20:16:29.379Z,93360.03
2019-01-30T20:19:02.366Z,93360.63
2019-01-30T20:21:35.872Z,93358.19
2019-01-30T20:24:09.051Z,93359.30
2019-01-30T20:26:42.173Z,93360.20
2019-01-30T20:29:15.747Z,93360.14
2019-01-30T20:31:49.209Z,93358.75
2019-01-30T20:34:22.437Z,93359.98
2019-01-30T20:36:56.053Z,93356.80
2019-01-30T20:39:29.148Z,93362.45
2019-01-30T20:42:02.313Z,93361.08
2019-01-30T20:44:35.596Z,93364.29
2019-01-30T20:47:39.082Z,93361.53
2019-01-30T20:50:21.747Z,93360.33
2019-01-30T20:52:55.395Z,93354.15
2019-01-30T20:55:31.183Z,93357.23
2019-01-30T20:58:04.869Z,93367.03
2019-01-30T21:00:40.014Z,93366.83
2019-01-30T21:03:13.071Z,93366.48
2019-01-30T21:05:46.443Z,93369.73
2019-01-30T21:08:19.738Z,93366.12
2019-01-30T21:10:52.856Z,93367.48
2019-01-30T21:13:27.025Z,93369.31
2019-01-30T21:16:00.588Z,93372.10
2019-01-30T21:18:34.642Z,93371.54
2019-01-30T21:21:08.142Z,93371.48
2019-01-30T21:23:41.566Z,93379.12
2019-01-30T21:26:14.820Z,93379.66
2019-01-30T21:28:48.367Z,93377.37
2019-01-30T21:31:22.037Z,93373.99
2019-01-30T21:33:54.744Z,93373.20
2019-01-30T21:36:27.854Z,93370.36
2019-01-30T21:39:01.241Z,93373.70
2019-01-30T21:41:34.327Z,93371.70
2019-01-30T21:44:07.967Z,93369.56
2019-01-30T21:46:41.204Z,93374.38
2019-01-30T21:49:14.616Z,93374.02
2019-01-30T21:51:47.769Z,93370.37
2019-01-30T21:54:20.982Z,93373.47
2019-01-30T21:56:54.238Z,93371.52
2019-01-30T21:59:28.213Z,93369.23
2019-01-30T22:02:08.387Z,93378.74
2019-01-30T22:04:36.538Z,93380.06
2019-01-30T22:07:09.552Z,93374.11
2019-01-30T22:09:42.946Z,93376.48
2019-01-30T22:12:16.094Z,93372.79
2019-01-30T22:14:49.303Z,93365.92
2019-01-30T22:17:22.491Z,93364.52
2019-01-30T22:19:55.837Z,93359.03
2019-01-30T22:22:29.478Z,93354.16
2019-01-30T22:25:02.670Z,93352.16
2019-01-30T22:27:35.876Z,93350.97
2019-01-30T22:30:15.040Z,93346.48
2019-01-30T22:32:48.304Z,93350.13
2019-01-30T22:35:21.582Z,93348.84
2019-01-30T22:37:54.785Z,93346.05
2019-01-30T22:40:28.321Z,93348.50
2019-01-30T22:43:02.956Z,93345.97
2019-01-30T22:45:36.147Z,93352.25
2019-01-30T22:48:10.707Z,93346.35
2019-01-30T22:50:43.981Z,93344.08
2019-01-30T22:53:17.144Z,93338.53
2019-01-30T22:55:50.163Z,93335.20
2019-01-30T22:58:24.659Z,93335.06
2019-01-30T23:01:42.336Z,93330.64
2019-01-30T23:05:10.110Z,93336.05
2019-01-30T23:08:43.788Z,93335.95
2019-01-30T23:12:16.318Z,93336.56
2019-01-30T23:15:06.318Z,93340.19
2019-01-30T23:18:23.764Z,93342.52
2019-01-30T23:21:04.298Z,93341.23
2019-01-30T23:24:42.670Z,93339.39
2019-01-30T23:27:56.650Z,93329.80
2019-01-30T23:31:35.956Z,93337.72
2019-01-30T23:35:23.427Z,93328.38
2019-01-30T23:39:16.898Z,93328.67
2019-01-30T23:42:23.380Z,93331.30
2019-01-30T23:45:40.953Z,93333.80
2019-01-30T23:49:26.131Z,93327.77
2019-01-30T23:52:58.273Z,93333.17
2019-01-30T23:56:08.663Z,93337.16
2019-01-30T23:59:24.528Z,93338.31
